sensor_id;sensor_type;location;lat;lon;timestamp;P1;durP1;ratioP1;P2;durP2;ratioP2
29776;SDS011;16677;52.224;7.484;2022-10-12T00:02:24;16.77;;;8.27;;
29776;SDS011;16677;52.224;7.484;2022-10-12T00:04:51;15.33;;;8.10;;
29776;SDS011;16677;52.224;7.484;2022-10-12T00:07:18;16.80;;;8.27;;
29776;SDS011;16677;52.224;7.484;2022-10-12T00:09:45;20.97;;;9.10;;
29776;SDS011;16677;52.224;7.484;2022-10-12T00:12:12;18.07;;;8.83;;
29776;SDS011;16677;52.224;7.484;2022-10-12T00:14:39;17.33;;;9.07;;
29776;SDS011;16677;52.224;7.484;2022-10-12T00:17:06;15.43;;;8.40;;
29776;SDS011;16677;52.224;7.484;2022-10-12T00:19:33;15.93;;;8.23;;
29776;SDS011;16677;52.224;7.484;2022-10-12T00:22:00;18.97;;;9.33;;
29776;SDS011;16677;52.224;7.484;2022-10-12T00:24:27;12.70;;;8.47;;
29776;SDS011;16677;52.224;7.484;2022-10-12T00:26:54;19.90;;;9.30;;
29776;SDS011;16677;52.224;7.484;2022-10-12T00:29:21;19.40;;;10.00;;
29776;SDS011;16677;52.224;7.484;2022-10-12T00:31:48;23.00;;;9.77;;
29776;SDS011;16677;52.224;7.484;2022-10-12T00:34:15;17.40;;;9.47;;
29776;SDS011;16677;52.224;7.484;2022-10-12T00:36:45;16.10;;;8.50;;
29776;SDS011;16677;52.224;7.484;2022-10-12T00:39:12;18.37;;;10.47;;
29776;SDS011;16677;52.224;7.484;2022-10-12T00:41:40;15.77;;;10.13;;
29776;SDS011;16677;52.224;7.484;2022-10-12T00:52:27;15.87;;;7.77;;
29776;SDS011;16677;52.224;7.484;2022-10-12T00:55:00;14.33;;;8.70;;
29776;SDS011;16677;52.224;7.484;2022-10-12T00:57:29;15.57;;;8.57;;
29776;SDS011;16677;52.224;7.484;2022-10-12T00:59:57;17.33;;;9.57;;
29776;SDS011;16677;52.224;7.484;2022-10-12T01:02:29;20.83;;;9.97;;
29776;SDS011;16677;52.224;7.484;2022-10-12T01:04:58;35.23;;;11.00;;
29776;SDS011;16677;52.224;7.484;2022-10-12T01:07:26;21.27;;;9.63;;
29776;SDS011;16677;52.224;7.484;2022-10-12T01:09:55;17.40;;;9.57;;
29776;SDS011;16677;52.224;7.484;2022-10-12T01:12:22;18.97;;;9.27;;
29776;SDS011;16677;52.224;7.484;2022-10-12T01:14:50;19.30;;;9.83;;
29776;SDS011;16677;52.224;7.484;2022-10-12T01:22:29;13.93;;;9.00;;
29776;SDS011;16677;52.224;7.484;2022-10-12T01:25:12;14.90;;;8.90;;
29776;SDS011;16677;52.224;7.484;2022-10-12T01:28:01;12.83;;;9.23;;
29776;SDS011;16677;52.224;7.484;2022-10-12T01:30:47;13.77;;;9.00;;
29776;SDS011;16677;52.224;7.484;2022-10-12T01:33:23;21.13;;;10.77;;
29776;SDS011;16677;52.224;7.484;2022-10-12T01:36:35;16.00;;;9.60;;
29776;SDS011;16677;52.224;7.484;2022-10-12T01:41:54;17.63;;;9.67;;
29776;SDS011;16677;52.224;7.484;2022-10-12T01:44:25;19.50;;;9.83;;
29776;SDS011;16677;52.224;7.484;2022-10-12T01:46:52;15.03;;;9.70;;
29776;SDS011;16677;52.224;7.484;2022-10-12T01:49:22;17.83;;;9.60;;
29776;SDS011;16677;52.224;7.484;2022-10-12T01:57:23;13.17;;;9.27;;
29776;SDS011;16677;52.224;7.484;2022-10-12T02:05:21;12.23;;;8.53;;
29776;SDS011;16677;52.224;7.484;2022-10-12T02:10:25;13.43;;;8.80;;
29776;SDS011;16677;52.224;7.484;2022-10-12T02:13:01;12.57;;;8.33;;
29776;SDS011;16677;52.224;7.484;2022-10-12T02:15:33;13.33;;;8.37;;
29776;SDS011;16677;52.224;7.484;2022-10-12T02:18:02;14.63;;;8.27;;
29776;SDS011;16677;52.224;7.484;2022-10-12T02:20:32;11.73;;;8.70;;
29776;SDS011;16677;52.224;7.484;2022-10-12T02:23:01;12.83;;;8.27;;
29776;SDS011;16677;52.224;7.484;2022-10-12T02:25:28;14.30;;;8.83;;
29776;SDS011;16677;52.224;7.484;2022-10-12T02:28:06;13.70;;;9.67;;
29776;SDS011;16677;52.224;7.484;2022-10-12T02:30:37;19.47;;;10.57;;
29776;SDS011;16677;52.224;7.484;2022-10-12T02:33:19;23.33;;;10.87;;
29776;SDS011;16677;52.224;7.484;2022-10-12T02:35:51;21.37;;;12.40;;
29776;SDS011;16677;52.224;7.484;2022-10-12T02:38:30;22.47;;;11.80;;
29776;SDS011;16677;52.224;7.484;2022-10-12T02:41:02;21.13;;;12.17;;
29776;SDS011;16677;52.224;7.484;2022-10-12T02:43:38;17.13;;;10.60;;
29776;SDS011;16677;52.224;7.484;2022-10-12T02:46:24;14.00;;;10.00;;
29776;SDS011;16677;52.224;7.484;2022-10-12T02:48:54;20.67;;;9.90;;
29776;SDS011;16677;52.224;7.484;2022-10-12T02:51:25;16.37;;;10.07;;
29776;SDS011;16677;52.224;7.484;2022-10-12T02:53:54;21.43;;;11.13;;
29776;SDS011;16677;52.224;7.484;2022-10-12T02:56:22;18.13;;;10.23;;
29776;SDS011;16677;52.224;7.484;2022-10-12T02:58:49;20.00;;;11.00;;
29776;SDS011;16677;52.224;7.484;2022-10-12T03:01:16;59.60;;;16.37;;
29776;SDS011;16677;52.224;7.484;2022-10-12T03:03:44;31.13;;;13.40;;
29776;SDS011;16677;52.224;7.484;2022-10-12T03:06:11;17.77;;;11.57;;
29776;SDS011;16677;52.224;7.484;2022-10-12T03:08:38;20.00;;;12.20;;
29776;SDS011;16677;52.224;7.484;2022-10-12T03:11:09;21.40;;;12.80;;
29776;SDS011;16677;52.224;7.484;2022-10-12T03:13:38;20.43;;;13.10;;
29776;SDS011;16677;52.224;7.484;2022-10-12T03:16:09;22.20;;;12.57;;
29776;SDS011;16677;52.224;7.484;2022-10-12T03:18:37;21.13;;;12.23;;
29776;SDS011;16677;52.224;7.484;2022-10-12T03:21:05;19.80;;;11.73;;
29776;SDS011;16677;52.224;7.484;2022-10-12T03:23:32;21.53;;;11.90;;
29776;SDS011;16677;52.224;7.484;2022-10-12T03:25:59;29.57;;;13.70;;
29776;SDS011;16677;52.224;7.484;2022-10-12T03:28:26;29.73;;;13.87;;
29776;SDS011;16677;52.224;7.484;2022-10-12T03:30:53;24.57;;;11.97;;
29776;SDS011;16677;52.224;7.484;2022-10-12T03:33:20;20.47;;;10.73;;
29776;SDS011;16677;52.224;7.484;2022-10-12T03:35:48;18.63;;;11.70;;
29776;SDS011;16677;52.224;7.484;2022-10-12T03:38:16;17.40;;;10.93;;
29776;SDS011;16677;52.224;7.484;2022-10-12T03:40:45;21.57;;;11.60;;
29776;SDS011;16677;52.224;7.484;2022-10-12T03:43:12;21.57;;;10.53;;
29776;SDS011;16677;52.224;7.484;2022-10-12T03:45:39;20.10;;;9.90;;
29776;SDS011;16677;52.224;7.484;2022-10-12T03:48:06;17.93;;;9.77;;
29776;SDS011;16677;52.224;7.484;2022-10-12T03:50:33;14.30;;;9.20;;
29776;SDS011;16677;52.224;7.484;2022-10-12T03:53:02;17.67;;;9.43;;
29776;SDS011;16677;52.224;7.484;2022-10-12T03:55:30;16.97;;;10.50;;
29776;SDS011;16677;52.224;7.484;2022-10-12T03:57:57;15.93;;;11.40;;
29776;SDS011;16677;52.224;7.484;2022-10-12T04:00:26;17.13;;;10.47;;
29776;SDS011;16677;52.224;7.484;2022-10-12T04:02:53;16.73;;;11.13;;
29776;SDS011;16677;52.224;7.484;2022-10-12T04:05:21;18.33;;;10.87;;
29776;SDS011;16677;52.224;7.484;2022-10-12T04:07:48;149.47;;;26.80;;
29776;SDS011;16677;52.224;7.484;2022-10-12T04:10:15;16.50;;;10.77;;
29776;SDS011;16677;52.224;7.484;2022-10-12T04:12:43;17.33;;;11.30;;
29776;SDS011;16677;52.224;7.484;2022-10-12T04:15:10;18.13;;;10.57;;
29776;SDS011;16677;52.224;7.484;2022-10-12T04:17:38;15.07;;;10.83;;
29776;SDS011;16677;52.224;7.484;2022-10-12T04:20:06;14.63;;;10.47;;
29776;SDS011;16677;52.224;7.484;2022-10-12T04:22:35;19.10;;;10.60;;
29776;SDS011;16677;52.224;7.484;2022-10-12T04:25:02;16.00;;;10.47;;
29776;SDS011;16677;52.224;7.484;2022-10-12T04:27:30;18.10;;;10.33;;
29776;SDS011;16677;52.224;7.484;2022-10-12T04:29:57;18.07;;;11.20;;
29776;SDS011;16677;52.224;7.484;2022-10-12T04:32:23;18.37;;;11.37;;
29776;SDS011;16677;52.224;7.484;2022-10-12T04:34:50;19.97;;;11.07;;
29776;SDS011;16677;52.224;7.484;2022-10-12T04:37:17;18.07;;;9.80;;
29776;SDS011;16677;52.224;7.484;2022-10-12T04:39:44;16.77;;;11.63;;
29776;SDS011;16677;52.224;7.484;2022-10-12T04:42:11;15.10;;;10.93;;
29776;SDS011;16677;52.224;7.484;2022-10-12T04:44:38;151.00;;;26.57;;
29776;SDS011;16677;52.224;7.484;2022-10-12T04:47:05;18.67;;;12.47;;
29776;SDS011;16677;52.224;7.484;2022-10-12T04:49:32;16.93;;;11.90;;
29776;SDS011;16677;52.224;7.484;2022-10-12T04:51:59;16.50;;;10.70;;
29776;SDS011;16677;52.224;7.484;2022-10-12T04:54:26;17.47;;;11.10;;
29776;SDS011;16677;52.224;7.484;2022-10-12T04:56:53;19.43;;;11.37;;
29776;SDS011;16677;52.224;7.484;2022-10-12T04:59:20;14.93;;;10.67;;
29776;SDS011;16677;52.224;7.484;2022-10-12T05:01:47;16.67;;;11.03;;
29776;SDS011;16677;52.224;7.484;2022-10-12T05:04:14;17.70;;;10.30;;
29776;SDS011;16677;52.224;7.484;2022-10-12T05:06:41;15.43;;;10.10;;
29776;SDS011;16677;52.224;7.484;2022-10-12T05:09:08;16.27;;;10.50;;
29776;SDS011;16677;52.224;7.484;2022-10-12T05:11:42;20.47;;;10.07;;
29776;SDS011;16677;52.224;7.484;2022-10-12T05:14:09;17.00;;;10.50;;
29776;SDS011;16677;52.224;7.484;2022-10-12T05:16:36;15.20;;;10.10;;
29776;SDS011;16677;52.224;7.484;2022-10-12T05:19:03;18.53;;;10.90;;
29776;SDS011;16677;52.224;7.484;2022-10-12T05:21:30;23.70;;;10.90;;
29776;SDS011;16677;52.224;7.484;2022-10-12T05:23:56;25.27;;;11.80;;
29776;SDS011;16677;52.224;7.484;2022-10-12T05:26:23;14.70;;;9.23;;
29776;SDS011;16677;52.224;7.484;2022-10-12T05:28:51;15.90;;;11.27;;
29776;SDS011;16677;52.224;7.484;2022-10-12T05:31:18;14.53;;;10.80;;
29776;SDS011;16677;52.224;7.484;2022-10-12T05:33:45;16.93;;;10.90;;
29776;SDS011;16677;52.224;7.484;2022-10-12T05:36:12;18.33;;;11.13;;
29776;SDS011;16677;52.224;7.484;2022-10-12T05:38:39;14.00;;;11.53;;
29776;SDS011;16677;52.224;7.484;2022-10-12T05:41:06;18.93;;;10.13;;
29776;SDS011;16677;52.224;7.484;2022-10-12T05:43:32;21.33;;;9.97;;
29776;SDS011;16677;52.224;7.484;2022-10-12T05:45:59;18.50;;;10.00;;
29776;SDS011;16677;52.224;7.484;2022-10-12T05:48:26;13.00;;;10.00;;
29776;SDS011;16677;52.224;7.484;2022-10-12T05:50:53;37.40;;;13.87;;
29776;SDS011;16677;52.224;7.484;2022-10-12T05:53:22;18.70;;;11.30;;
29776;SDS011;16677;52.224;7.484;2022-10-12T05:55:56;21.37;;;11.70;;
29776;SDS011;16677;52.224;7.484;2022-10-12T05:58:25;16.30;;;12.20;;
29776;SDS011;16677;52.224;7.484;2022-10-12T06:01:40;18.63;;;10.50;;
29776;SDS011;16677;52.224;7.484;2022-10-12T06:04:25;22.10;;;10.90;;
29776;SDS011;16677;52.224;7.484;2022-10-12T06:11:27;18.23;;;10.40;;
29776;SDS011;16677;52.224;7.484;2022-10-12T06:15:27;170.10;;;20.20;;
29776;SDS011;16677;52.224;7.484;2022-10-12T06:19:15;378.03;;;33.57;;
29776;SDS011;16677;52.224;7.484;2022-10-12T06:33:36;23.77;;;11.00;;
29776;SDS011;16677;52.224;7.484;2022-10-12T06:36:05;16.03;;;10.57;;
29776;SDS011;16677;52.224;7.484;2022-10-12T06:38:35;16.20;;;10.10;;
29776;SDS011;16677;52.224;7.484;2022-10-12T06:41:09;17.43;;;10.80;;
29776;SDS011;16677;52.224;7.484;2022-10-12T06:43:55;30.60;;;12.87;;
29776;SDS011;16677;52.224;7.484;2022-10-12T06:46:22;17.93;;;10.57;;
29776;SDS011;16677;52.224;7.484;2022-10-12T06:48:51;15.60;;;10.33;;
29776;SDS011;16677;52.224;7.484;2022-10-12T06:51:19;13.23;;;9.40;;
29776;SDS011;16677;52.224;7.484;2022-10-12T06:53:46;15.13;;;9.57;;
29776;SDS011;16677;52.224;7.484;2022-10-12T06:56:13;12.73;;;8.90;;
29776;SDS011;16677;52.224;7.484;2022-10-12T06:58:40;20.43;;;9.67;;
29776;SDS011;16677;52.224;7.484;2022-10-12T07:01:07;15.30;;;10.80;;
29776;SDS011;16677;52.224;7.484;2022-10-12T07:03:36;17.10;;;10.43;;
29776;SDS011;16677;52.224;7.484;2022-10-12T07:06:10;14.43;;;10.13;;
29776;SDS011;16677;52.224;7.484;2022-10-12T07:08:39;17.00;;;10.10;;
29776;SDS011;16677;52.224;7.484;2022-10-12T07:11:08;12.13;;;8.23;;
29776;SDS011;16677;52.224;7.484;2022-10-12T07:13:37;16.80;;;8.50;;
29776;SDS011;16677;52.224;7.484;2022-10-12T07:16:04;13.97;;;8.33;;
29776;SDS011;16677;52.224;7.484;2022-10-12T07:18:31;16.70;;;9.07;;
29776;SDS011;16677;52.224;7.484;2022-10-12T07:20:58;15.47;;;8.53;;
29776;SDS011;16677;52.224;7.484;2022-10-12T07:23:31;14.77;;;8.40;;
29776;SDS011;16677;52.224;7.484;2022-10-12T07:25:59;14.13;;;8.13;;
29776;SDS011;16677;52.224;7.484;2022-10-12T07:28:27;16.00;;;7.83;;
29776;SDS011;16677;52.224;7.484;2022-10-12T07:30:58;12.88;;;7.03;;
29776;SDS011;16677;52.224;7.484;2022-10-12T07:33:29;11.43;;;6.65;;
29776;SDS011;16677;52.224;7.484;2022-10-12T07:36:00;11.85;;;6.70;;
29776;SDS011;16677;52.224;7.484;2022-10-12T07:38:47;12.32;;;7.53;;
29776;SDS011;16677;52.224;7.484;2022-10-12T07:41:15;13.18;;;7.28;;
29776;SDS011;16677;52.224;7.484;2022-10-12T07:43:42;16.92;;;7.85;;
29776;SDS011;16677;52.224;7.484;2022-10-12T08:56:55;13.47;;;6.27;;
29776;SDS011;16677;52.224;7.484;2022-10-12T08:59:32;10.20;;;5.33;;
29776;SDS011;16677;52.224;7.484;2022-10-12T09:04:57;9.53;;;4.57;;
29776;SDS011;16677;52.224;7.484;2022-10-12T09:10:12;7.03;;;4.20;;
29776;SDS011;16677;52.224;7.484;2022-10-12T09:13:01;14.43;;;4.97;;
29776;SDS011;16677;52.224;7.484;2022-10-12T09:15:50;9.17;;;5.13;;
29776;SDS011;16677;52.224;7.484;2022-10-12T09:18:35;10.90;;;4.63;;
29776;SDS011;16677;52.224;7.484;2022-10-12T09:21:18;8.80;;;4.43;;
29776;SDS011;16677;52.224;7.484;2022-10-12T09:23:47;10.40;;;5.00;;
29776;SDS011;16677;52.224;7.484;2022-10-12T09:26:17;14.63;;;6.03;;
29776;SDS011;16677;52.224;7.484;2022-10-12T09:28:55;9.10;;;5.03;;
29776;SDS011;16677;52.224;7.484;2022-10-12T09:31:43;7.77;;;4.97;;
29776;SDS011;16677;52.224;7.484;2022-10-12T09:34:26;9.67;;;5.00;;
29776;SDS011;16677;52.224;7.484;2022-10-12T09:36:53;8.90;;;5.20;;
29776;SDS011;16677;52.224;7.484;2022-10-12T09:39:23;9.37;;;4.90;;
29776;SDS011;16677;52.224;7.484;2022-10-12T09:41:56;10.37;;;5.87;;
29776;SDS011;16677;52.224;7.484;2022-10-12T09:44:34;15.17;;;5.07;;
29776;SDS011;16677;52.224;7.484;2022-10-12T09:47:06;10.33;;;5.70;;
29776;SDS011;16677;52.224;7.484;2022-10-12T09:49:52;15.50;;;6.13;;
29776;SDS011;16677;52.224;7.484;2022-10-12T09:55:02;12.17;;;5.30;;
29776;SDS011;16677;52.224;7.484;2022-10-12T09:57:38;8.53;;;5.20;;
29776;SDS011;16677;52.224;7.484;2022-10-12T10:02:51;10.83;;;5.40;;
29776;SDS011;16677;52.224;7.484;2022-10-12T10:05:26;13.67;;;5.50;;
29776;SDS011;16677;52.224;7.484;2022-10-12T10:10:55;9.27;;;5.17;;
29776;SDS011;16677;52.224;7.484;2022-10-12T10:13:25;10.47;;;5.63;;
29776;SDS011;16677;52.224;7.484;2022-10-12T10:16:02;9.53;;;5.50;;
29776;SDS011;16677;52.224;7.484;2022-10-12T10:18:37;10.70;;;5.20;;
29776;SDS011;16677;52.224;7.484;2022-10-12T10:21:09;9.80;;;5.00;;
29776;SDS011;16677;52.224;7.484;2022-10-12T10:26:09;8.90;;;5.50;;
29776;SDS011;16677;52.224;7.484;2022-10-12T10:28:40;9.37;;;5.07;;
29776;SDS011;16677;52.224;7.484;2022-10-12T10:36:45;13.90;;;5.00;;
29776;SDS011;16677;52.224;7.484;2022-10-12T10:41:50;10.30;;;4.90;;
29776;SDS011;16677;52.224;7.484;2022-10-12T10:44:31;8.43;;;4.70;;
29776;SDS011;16677;52.224;7.484;2022-10-12T10:47:10;9.87;;;5.10;;
29776;SDS011;16677;52.224;7.484;2022-10-12T10:49:39;10.47;;;4.97;;
29776;SDS011;16677;52.224;7.484;2022-10-12T10:58:03;9.90;;;4.10;;
29776;SDS011;16677;52.224;7.484;2022-10-12T11:00:34;11.63;;;4.53;;
29776;SDS011;16677;52.224;7.484;2022-10-12T11:03:22;7.57;;;4.10;;
29776;SDS011;16677;52.224;7.484;2022-10-12T11:06:26;9.38;;;4.68;;
29776;SDS011;16677;52.224;7.484;2022-10-12T11:31:05;8.03;;;4.27;;
29776;SDS011;16677;52.224;7.484;2022-10-12T11:33:40;10.70;;;4.47;;
29776;SDS011;16677;52.224;7.484;2022-10-12T11:36:13;8.30;;;4.00;;
29776;SDS011;16677;52.224;7.484;2022-10-12T11:41:28;10.13;;;4.03;;
29776;SDS011;16677;52.224;7.484;2022-10-12T11:52:20;8.23;;;4.03;;
29776;SDS011;16677;52.224;7.484;2022-10-12T11:54:56;8.70;;;4.43;;
29776;SDS011;16677;52.224;7.484;2022-10-12T11:57:46;9.87;;;4.30;;
29776;SDS011;16677;52.224;7.484;2022-10-12T12:00:15;11.67;;;4.23;;
29776;SDS011;16677;52.224;7.484;2022-10-12T12:02:49;11.80;;;4.30;;
29776;SDS011;16677;52.224;7.484;2022-10-12T12:05:44;11.47;;;4.47;;
29776;SDS011;16677;52.224;7.484;2022-10-12T12:11:18;8.77;;;4.00;;
29776;SDS011;16677;52.224;7.484;2022-10-12T12:13:50;10.37;;;3.60;;
29776;SDS011;16677;52.224;7.484;2022-10-12T12:16:41;6.73;;;3.47;;
29776;SDS011;16677;52.224;7.484;2022-10-12T12:19:16;11.70;;;3.43;;
29776;SDS011;16677;52.224;7.484;2022-10-12T12:27:39;8.13;;;3.33;;
29776;SDS011;16677;52.224;7.484;2022-10-12T12:32:48;6.03;;;3.00;;
29776;SDS011;16677;52.224;7.484;2022-10-12T12:40:59;11.27;;;4.10;;
29776;SDS011;16677;52.224;7.484;2022-10-12T12:43:49;16.43;;;4.40;;
29776;SDS011;16677;52.224;7.484;2022-10-12T12:46:18;11.93;;;3.37;;
29776;SDS011;16677;52.224;7.484;2022-10-12T12:51:23;11.43;;;3.77;;
29776;SDS011;16677;52.224;7.484;2022-10-12T12:59:11;11.27;;;3.42;;
29776;SDS011;16677;52.224;7.484;2022-10-12T13:02:00;10.88;;;3.38;;
29776;SDS011;16677;52.224;7.484;2022-10-12T13:13:27;7.17;;;2.70;;
29776;SDS011;16677;52.224;7.484;2022-10-12T13:19:11;8.53;;;2.80;;
29776;SDS011;16677;52.224;7.484;2022-10-12T13:21:49;7.17;;;2.90;;
29776;SDS011;16677;52.224;7.484;2022-10-12T13:27:37;5.93;;;2.37;;
29776;SDS011;16677;52.224;7.484;2022-10-12T13:29:55;9.43;;;2.80;;
29776;SDS011;16677;52.224;7.484;2022-10-12T13:35:33;6.93;;;2.67;;
29776;SDS011;16677;52.224;7.484;2022-10-12T13:40:42;7.00;;;2.80;;
29776;SDS011;16677;52.224;7.484;2022-10-12T13:45:52;8.23;;;2.93;;
29776;SDS011;16677;52.224;7.484;2022-10-12T13:48:21;7.13;;;2.70;;
29776;SDS011;16677;52.224;7.484;2022-10-12T13:51:20;5.43;;;2.50;;
29776;SDS011;16677;52.224;7.484;2022-10-12T13:53:50;5.17;;;2.50;;
29776;SDS011;16677;52.224;7.484;2022-10-12T13:56:18;7.50;;;2.97;;
29776;SDS011;16677;52.224;7.484;2022-10-12T13:58:49;5.23;;;2.43;;
29776;SDS011;16677;52.224;7.484;2022-10-12T14:01:20;6.50;;;2.80;;
29776;SDS011;16677;52.224;7.484;2022-10-12T14:03:48;7.50;;;3.23;;
29776;SDS011;16677;52.224;7.484;2022-10-12T14:08:57;5.33;;;2.67;;
29776;SDS011;16677;52.224;7.484;2022-10-12T14:11:31;10.50;;;2.80;;
29776;SDS011;16677;52.224;7.484;2022-10-12T14:13:59;8.10;;;2.30;;
29776;SDS011;16677;52.224;7.484;2022-10-12T14:16:27;7.37;;;2.60;;
29776;SDS011;16677;52.224;7.484;2022-10-12T14:18:54;9.33;;;2.53;;
29776;SDS011;16677;52.224;7.484;2022-10-12T14:21:21;4.93;;;2.43;;
29776;SDS011;16677;52.224;7.484;2022-10-12T14:24:06;5.97;;;2.60;;
29776;SDS011;16677;52.224;7.484;2022-10-12T14:31:53;4.27;;;2.33;;
29776;SDS011;16677;52.224;7.484;2022-10-12T14:37:01;7.40;;;2.90;;
29776;SDS011;16677;52.224;7.484;2022-10-12T14:39:45;7.90;;;2.87;;
29776;SDS011;16677;52.224;7.484;2022-10-12T14:44:52;9.10;;;2.77;;
29776;SDS011;16677;52.224;7.484;2022-10-12T14:47:25;8.57;;;2.73;;
29776;SDS011;16677;52.224;7.484;2022-10-12T14:49:57;9.50;;;2.73;;
29776;SDS011;16677;52.224;7.484;2022-10-12T14:52:41;6.23;;;2.53;;
29776;SDS011;16677;52.224;7.484;2022-10-12T14:55:14;8.50;;;2.80;;
29776;SDS011;16677;52.224;7.484;2022-10-12T14:57:44;9.77;;;3.00;;
29776;SDS011;16677;52.224;7.484;2022-10-12T15:00:25;5.37;;;2.40;;
29776;SDS011;16677;52.224;7.484;2022-10-12T15:02:54;8.63;;;2.97;;
29776;SDS011;16677;52.224;7.484;2022-10-12T15:05:28;4.73;;;2.60;;
29776;SDS011;16677;52.224;7.484;2022-10-12T15:08:16;5.20;;;2.23;;
29776;SDS011;16677;52.224;7.484;2022-10-12T15:10:51;6.97;;;2.30;;
29776;SDS011;16677;52.224;7.484;2022-10-12T15:13:18;8.90;;;2.77;;
29776;SDS011;16677;52.224;7.484;2022-10-12T15:15:45;6.27;;;2.37;;
29776;SDS011;16677;52.224;7.484;2022-10-12T15:18:13;5.33;;;1.93;;
29776;SDS011;16677;52.224;7.484;2022-10-12T15:20:40;5.27;;;2.07;;
29776;SDS011;16677;52.224;7.484;2022-10-12T15:23:14;9.27;;;2.20;;
29776;SDS011;16677;52.224;7.484;2022-10-12T15:25:47;7.17;;;2.40;;
29776;SDS011;16677;52.224;7.484;2022-10-12T15:28:14;6.83;;;2.37;;
29776;SDS011;16677;52.224;7.484;2022-10-12T15:30:42;7.43;;;2.90;;
29776;SDS011;16677;52.224;7.484;2022-10-12T15:33:29;5.20;;;2.13;;
29776;SDS011;16677;52.224;7.484;2022-10-12T15:35:56;6.67;;;2.40;;
29776;SDS011;16677;52.224;7.484;2022-10-12T15:38:23;9.93;;;2.60;;
29776;SDS011;16677;52.224;7.484;2022-10-12T15:40:50;6.20;;;2.53;;
29776;SDS011;16677;52.224;7.484;2022-10-12T15:43:18;7.23;;;2.77;;
29776;SDS011;16677;52.224;7.484;2022-10-12T15:45:46;8.53;;;2.40;;
29776;SDS011;16677;52.224;7.484;2022-10-12T15:48:13;7.40;;;2.47;;
29776;SDS011;16677;52.224;7.484;2022-10-12T15:50:41;6.37;;;2.83;;
29776;SDS011;16677;52.224;7.484;2022-10-12T15:53:16;8.13;;;3.30;;
29776;SDS011;16677;52.224;7.484;2022-10-12T15:55:53;6.77;;;3.53;;
29776;SDS011;16677;52.224;7.484;2022-10-12T15:58:21;7.80;;;3.90;;
29776;SDS011;16677;52.224;7.484;2022-10-12T16:00:48;5.80;;;3.40;;
29776;SDS011;16677;52.224;7.484;2022-10-12T16:03:17;5.40;;;3.47;;
29776;SDS011;16677;52.224;7.484;2022-10-12T16:05:51;10.67;;;3.73;;
29776;SDS011;16677;52.224;7.484;2022-10-12T16:08:18;7.53;;;3.37;;
29776;SDS011;16677;52.224;7.484;2022-10-12T16:10:46;10.57;;;5.27;;
29776;SDS011;16677;52.224;7.484;2022-10-12T16:13:14;10.43;;;5.10;;
29776;SDS011;16677;52.224;7.484;2022-10-12T16:15:42;10.53;;;5.00;;
29776;SDS011;16677;52.224;7.484;2022-10-12T16:18:09;8.57;;;4.87;;
29776;SDS011;16677;52.224;7.484;2022-10-12T16:20:40;11.80;;;7.17;;
29776;SDS011;16677;52.224;7.484;2022-10-12T16:23:10;14.10;;;9.00;;
29776;SDS011;16677;52.224;7.484;2022-10-12T16:25:43;15.60;;;9.43;;
29776;SDS011;16677;52.224;7.484;2022-10-12T16:28:10;17.73;;;11.53;;
29776;SDS011;16677;52.224;7.484;2022-10-12T16:30:39;16.93;;;8.27;;
29776;SDS011;16677;52.224;7.484;2022-10-12T16:33:06;10.07;;;7.97;;
29776;SDS011;16677;52.224;7.484;2022-10-12T16:35:34;11.77;;;7.70;;
29776;SDS011;16677;52.224;7.484;2022-10-12T16:38:01;10.87;;;6.57;;
29776;SDS011;16677;52.224;7.484;2022-10-12T16:40:31;13.77;;;7.87;;
29776;SDS011;16677;52.224;7.484;2022-10-12T16:42:58;11.97;;;6.97;;
29776;SDS011;16677;52.224;7.484;2022-10-12T16:45:25;12.33;;;6.50;;
29776;SDS011;16677;52.224;7.484;2022-10-12T16:47:52;12.33;;;7.13;;
29776;SDS011;16677;52.224;7.484;2022-10-12T16:50:20;11.27;;;7.60;;
29776;SDS011;16677;52.224;7.484;2022-10-12T16:52:49;12.40;;;7.73;;
29776;SDS011;16677;52.224;7.484;2022-10-12T16:55:18;11.70;;;7.70;;
29776;SDS011;16677;52.224;7.484;2022-10-12T16:57:45;14.67;;;10.80;;
29776;SDS011;16677;52.224;7.484;2022-10-12T17:00:13;16.17;;;7.30;;
29776;SDS011;16677;52.224;7.484;2022-10-12T17:02:47;10.20;;;6.37;;
29776;SDS011;16677;52.224;7.484;2022-10-12T17:05:20;12.33;;;6.27;;
29776;SDS011;16677;52.224;7.484;2022-10-12T17:07:47;20.03;;;9.47;;
29776;SDS011;16677;52.224;7.484;2022-10-12T17:10:14;14.73;;;7.80;;
29776;SDS011;16677;52.224;7.484;2022-10-12T17:12:41;13.57;;;7.23;;
29776;SDS011;16677;52.224;7.484;2022-10-12T17:15:09;17.10;;;9.57;;
29776;SDS011;16677;52.224;7.484;2022-10-12T17:17:36;16.80;;;9.33;;
29776;SDS011;16677;52.224;7.484;2022-10-12T17:20:03;10.53;;;8.77;;
29776;SDS011;16677;52.224;7.484;2022-10-12T17:22:30;15.60;;;8.60;;
29776;SDS011;16677;52.224;7.484;2022-10-12T17:24:57;14.60;;;8.80;;
29776;SDS011;16677;52.224;7.484;2022-10-12T17:27:24;17.50;;;8.47;;
29776;SDS011;16677;52.224;7.484;2022-10-12T17:29:57;13.33;;;7.87;;
29776;SDS011;16677;52.224;7.484;2022-10-12T17:32:25;12.77;;;7.10;;
29776;SDS011;16677;52.224;7.484;2022-10-12T17:34:52;10.90;;;6.47;;
29776;SDS011;16677;52.224;7.484;2022-10-12T17:37:19;12.80;;;8.00;;
29776;SDS011;16677;52.224;7.484;2022-10-12T17:39:47;11.70;;;7.20;;
29776;SDS011;16677;52.224;7.484;2022-10-12T17:42:15;13.20;;;8.07;;
29776;SDS011;16677;52.224;7.484;2022-10-12T17:44:44;12.00;;;7.20;;
29776;SDS011;16677;52.224;7.484;2022-10-12T17:47:11;11.27;;;7.10;;
29776;SDS011;16677;52.224;7.484;2022-10-12T17:49:38;15.30;;;8.30;;
29776;SDS011;16677;52.224;7.484;2022-10-12T17:52:05;22.63;;;12.77;;
29776;SDS011;16677;52.224;7.484;2022-10-12T17:54:32;21.03;;;12.13;;
29776;SDS011;16677;52.224;7.484;2022-10-12T17:56:59;15.53;;;10.53;;
29776;SDS011;16677;52.224;7.484;2022-10-12T17:59:26;16.30;;;9.90;;
29776;SDS011;16677;52.224;7.484;2022-10-12T18:01:53;14.00;;;9.43;;
29776;SDS011;16677;52.224;7.484;2022-10-12T18:04:20;15.30;;;9.40;;
29776;SDS011;16677;52.224;7.484;2022-10-12T18:06:47;14.13;;;8.80;;
29776;SDS011;16677;52.224;7.484;2022-10-12T18:09:14;15.77;;;8.83;;
29776;SDS011;16677;52.224;7.484;2022-10-12T18:11:42;17.03;;;10.10;;
29776;SDS011;16677;52.224;7.484;2022-10-12T18:14:09;18.20;;;10.00;;
29776;SDS011;16677;52.224;7.484;2022-10-12T18:16:38;20.20;;;13.57;;
29776;SDS011;16677;52.224;7.484;2022-10-12T18:19:05;18.15;;;12.48;;
29776;SDS011;16677;52.224;7.484;2022-10-12T18:21:35;20.87;;;13.90;;
29776;SDS011;16677;52.224;7.484;2022-10-12T18:24:03;28.73;;;17.10;;
29776;SDS011;16677;52.224;7.484;2022-10-12T18:26:36;25.73;;;14.70;;
29776;SDS011;16677;52.224;7.484;2022-10-12T18:29:04;21.73;;;14.52;;
29776;SDS011;16677;52.224;7.484;2022-10-12T18:31:31;20.58;;;13.50;;
29776;SDS011;16677;52.224;7.484;2022-10-12T18:33:58;27.48;;;20.60;;
29776;SDS011;16677;52.224;7.484;2022-10-12T18:36:25;15.20;;;10.13;;
29776;SDS011;16677;52.224;7.484;2022-10-12T18:38:53;13.75;;;8.95;;
29776;SDS011;16677;52.224;7.484;2022-10-12T18:41:21;16.35;;;9.43;;
29776;SDS011;16677;52.224;7.484;2022-10-12T18:43:52;14.35;;;9.52;;
29776;SDS011;16677;52.224;7.484;2022-10-12T18:46:23;20.30;;;15.55;;
29776;SDS011;16677;52.224;7.484;2022-10-12T18:48:54;21.77;;;15.10;;
29776;SDS011;16677;52.224;7.484;2022-10-12T18:51:25;19.13;;;13.40;;
29776;SDS011;16677;52.224;7.484;2022-10-12T18:53:54;18.02;;;11.88;;
29776;SDS011;16677;52.224;7.484;2022-10-12T18:56:22;17.08;;;10.70;;
29776;SDS011;16677;52.224;7.484;2022-10-12T18:58:49;14.20;;;9.68;;
29776;SDS011;16677;52.224;7.484;2022-10-12T19:01:18;15.38;;;9.55;;